Time;durP1;ratioP1;P1;durP2;ratioP2;P2;SDS_P1;SDS_P2;PMS_P1;PMS_P2;Temp;Humidity;BMP_temperature;BMP_pressure;BME280_temperature;BME280_humidity;BME280_pressure;Samples;Min_cycle;Max_cycle;Signal;HPM_P1;HPM_P2
2024/04/19 00:00:20;;;;;;;6.70;6.10;;;;;;;3.20;100.00;99304.66;6632960;21;20281;-85
2024/04/19 00:02:48;;;;;;;6.90;6.30;;;;;;;3.23;100.00;99298.19;6632631;21;20673;-86
2024/04/19 00:05:22;;;;;;;6.63;6.10;;;;;;;3.21;100.00;99313.44;6632351;21;20784;-85
2024/04/19 00:07:52;;;;;;;6.27;5.67;;;;;;;3.27;100.00;99302.94;6589082;21;20251;-86
2024/04/19 00:10:20;;;;;;;6.40;5.90;;;;;;;3.34;100.00;99309.16;6632711;21;20224;-84
2024/04/19 00:12:47;;;;;;;6.10;5.60;;;;;;;3.30;100.00;99313.19;6588865;21;20228;-86
2024/04/19 00:15:21;;;;;;;6.27;5.67;;;;;;;3.33;100.00;99312.81;6591111;21;20240;-86
2024/04/19 00:17:50;;;;;;;6.00;5.50;;;;;;;3.29;100.00;99318.66;6588700;21;20231;-87
2024/04/19 00:20:36;;;;;;;6.20;5.60;;;;;;;3.30;100.00;99318.47;6596021;21;20236;-86
2024/04/19 00:23:08;;;;;;;6.20;5.63;;;;;;;3.38;100.00;99315.75;6632293;21;20228;-86
2024/04/19 00:25:36;;;;;;;6.63;6.03;;;;;;;3.49;100.00;99311.84;6545839;21;20329;-87
2024/04/19 00:28:04;;;;;;;6.57;5.97;;;;;;;3.43;100.00;99317.84;6545577;21;20232;-85
2024/04/19 00:30:33;;;;;;;7.07;6.30;;;;;;;3.51;100.00;99315.94;6545465;21;20259;-84
2024/04/19 00:33:01;;;;;;;6.50;6.00;;;;;;;3.43;100.00;99320.50;6588691;21;20228;-86
2024/04/19 00:35:39;;;;;;;6.63;6.13;;;;;;;3.46;100.00;99314.81;6553304;21;20548;-87
2024/04/19 00:38:08;;;;;;;7.03;6.33;;;;;;;3.46;100.00;99317.47;6588875;21;20302;-87
2024/04/19 00:40:36;;;;;;;6.33;5.77;;;;;;;3.40;100.00;99320.88;6545482;21;20224;-85
2024/04/19 00:43:07;;;;;;;6.13;5.60;;;;;;;3.36;100.00;99314.28;6589570;21;20684;-85
2024/04/19 00:45:37;;;;;;;6.10;5.50;;;;;;;3.30;100.00;99312.34;6588856;21;20302;-84
2024/04/19 00:48:17;;;;;;;5.63;5.13;;;;;;;3.23;100.00;99314.88;6545230;21;20295;-87
2024/04/19 00:50:57;;;;;;;5.27;4.77;;;;;;;3.35;100.00;99313.47;6632545;21;20232;-87
2024/04/19 00:53:28;;;;;;;5.10;4.70;;;;;;;3.28;100.00;99312.53;6588431;21;20298;-85
2024/04/19 00:55:57;;;;;;;5.50;4.77;;;;;;;3.28;100.00;99317.00;6631750;21;20228;-87
2024/04/19 00:58:26;;;;;;;5.50;4.83;;;;;;;3.27;100.00;99320.63;6545417;21;20275;-86
2024/04/19 01:01:02;;;;;;;5.53;5.03;;;;;;;3.34;100.00;99313.63;6632244;21;20224;-87
2024/04/19 01:03:30;;;;;;;5.10;4.70;;;;;;;3.37;100.00;99314.09;6631934;21;20279;-86
2024/04/19 01:05:58;;;;;;;4.90;4.50;;;;;;;3.32;100.00;99311.16;6588607;21;20236;-86
2024/04/19 01:08:26;;;;;;;5.23;4.83;;;;;;;3.33;100.00;99318.09;6588541;21;20270;-86
2024/04/19 01:10:54;;;;;;;5.53;5.03;;;;;;;3.26;100.00;99319.84;6588639;21;20289;-84
2024/04/19 01:13:22;;;;;;;5.40;4.90;;;;;;;3.21;100.00;99314.25;6587814;21;20223;-86
2024/04/19 01:15:50;;;;;;;5.00;4.60;;;;;;;3.25;100.00;99320.84;6587857;21;20274;-87
2024/04/19 01:18:18;;;;;;;5.33;4.83;;;;;;;3.16;100.00;99316.63;6587890;21;20271;-84
2024/04/19 01:20:47;;;;;;;4.67;4.37;;;;;;;3.08;100.00;99314.84;6631524;21;20547;-86
2024/04/19 01:23:17;;;;;;;4.90;4.50;;;;;;;3.05;100.00;99314.41;6633152;21;20283;-86
2024/04/19 01:25:46;;;;;;;4.63;4.27;;;;;;;2.97;100.00;99311.84;6633918;21;20278;-85
2024/04/19 01:28:14;;;;;;;5.00;4.60;;;;;;;2.97;100.00;99312.66;6634518;21;20220;-86
2024/04/19 01:30:44;;;;;;;5.07;4.67;;;;;;;2.89;100.00;99317.19;6589570;21;20287;-86
2024/04/19 01:33:12;;;;;;;4.77;4.37;;;;;;;2.85;100.00;99311.41;6633356;21;20228;-84
2024/04/19 01:35:41;;;;;;;5.20;4.80;;;;;;;2.90;100.00;99317.00;6635389;21;20267;-86
2024/04/19 01:38:09;;;;;;;5.17;4.77;;;;;;;2.89;100.00;99319.84;6590342;21;20232;-85
2024/04/19 01:40:37;;;;;;;5.20;4.80;;;;;;;2.86;100.00;99313.06;6590282;21;20225;-87
2024/04/19 01:43:05;;;;;;;5.13;4.73;;;;;;;2.76;100.00;99306.38;6633599;21;20220;-86
2024/04/19 01:45:32;;;;;;;5.20;4.80;;;;;;;2.75;100.00;99313.50;6634113;21;20228;-86
2024/04/19 01:48:00;;;;;;;5.00;4.60;;;;;;;2.73;100.00;99314.66;6634123;21;20227;-86
2024/04/19 01:50:28;;;;;;;4.53;4.23;;;;;;;2.73;100.00;99309.38;6590172;21;20228;-88
2024/04/19 01:52:56;;;;;;;4.70;4.30;;;;;;;2.72;100.00;99316.50;6633620;21;20262;-86
2024/04/19 01:55:24;;;;;;;5.10;4.60;;;;;;;2.66;100.00;99306.59;6590507;21;20258;-86
2024/04/19 01:57:51;;;;;;;4.90;4.50;;;;;;;2.55;100.00;99313.16;6546992;21;20232;-87
2024/04/19 02:00:19;;;;;;;5.00;4.60;;;;;;;2.54;100.00;99316.78;6633820;21;20264;-86
2024/04/19 02:02:47;;;;;;;5.20;4.80;;;;;;;2.52;100.00;99310.03;6590421;21;20275;-86
2024/04/19 02:05:16;;;;;;;4.83;4.43;;;;;;;2.50;100.00;99314.66;6590908;21;20224;-87
2024/04/19 02:07:44;;;;;;;5.10;4.70;;;;;;;2.55;100.00;99312.31;6678752;21;20236;-86
2024/04/19 02:10:12;;;;;;;5.13;4.73;;;;;;;2.51;100.00;99311.03;6633655;21;20239;-87
2024/04/19 02:12:44;;;;;;;5.20;4.80;;;;;;;2.47;100.00;99312.38;6633751;21;20306;-87
2024/04/19 02:15:14;;;;;;;5.10;4.70;;;;;;;2.54;100.00;99308.03;6589987;21;20266;-85
2024/04/19 02:17:43;;;;;;;5.27;4.87;;;;;;;2.50;100.00;99318.13;6589817;21;20778;-85
2024/04/19 02:20:12;;;;;;;4.90;4.50;;;;;;;2.46;100.00;99306.28;6590124;21;20236;-87
2024/04/19 02:22:41;;;;;;;5.23;4.83;;;;;;;2.53;100.00;99311.66;6547330;21;20236;-87
2024/04/19 02:25:08;;;;;;;4.90;4.50;;;;;;;2.43;100.00;99300.50;6589999;21;20239;-86
2024/04/19 02:33:09;;;;;;;5.20;4.80;;;;;;;2.37;100.00;99293.28;6596441;21;20271;-88
2024/04/19 02:35:40;;;;;;;5.03;4.63;;;;;;;2.37;100.00;99306.50;6632962;21;20351;-87
2024/04/19 02:38:17;;;;;;;4.97;4.57;;;;;;;2.28;100.00;99297.81;6591272;21;20659;-85
2024/04/19 02:40:45;;;;;;;4.60;4.20;;;;;;;2.31;100.00;99294.78;6633409;21;20224;-84
2024/04/19 02:43:13;;;;;;;4.60;4.20;;;;;;;2.30;100.00;99295.78;6632869;21;20227;-87
2024/04/19 02:46:04;;;;;;;4.67;4.27;;;;;;;2.37;100.00;99296.75;6596044;21;20228;-85
2024/04/19 02:48:33;;;;;;;4.97;4.10;;;;;;;2.45;100.00;99295.88;6635183;21;20258;-87
2024/04/19 02:51:02;;;;;;;3.97;3.60;;;;;;;2.46;100.00;99287.75;6632957;21;20708;-85
2024/04/19 02:53:34;;;;;;;5.00;3.53;;;;;;;2.46;100.00;99293.06;6634929;21;20279;-86
2024/04/19 02:56:03;;;;;;;4.17;3.87;;;;;;;2.44;100.00;99292.38;6632918;21;20236;-85
2024/04/19 02:58:31;;;;;;;3.77;3.47;;;;;;;2.69;100.00;99289.56;6588846;21;20333;-87
2024/04/19 03:00:59;;;;;;;3.70;3.40;;;;;;;2.55;100.00;99293.81;6632685;21;20696;-85
2024/04/19 03:03:27;;;;;;;3.73;3.33;;;;;;;2.58;100.00;99286.34;6589148;21;20615;-85
2024/04/19 03:05:55;;;;;;;3.77;3.27;;;;;;;2.58;100.00;99288.97;6632506;21;20224;-84
2024/04/19 03:08:23;;;;;;;3.63;3.33;;;;;;;2.55;100.00;99293.81;6545744;21;20677;-86
2024/04/19 03:10:55;;;;;;;4.07;3.30;;;;;;;2.51;100.00;99288.06;6631312;21;20228;-85
2024/04/19 03:13:26;;;;;;;3.67;3.37;;;;;;;2.51;100.00;99289.88;6590628;21;20266;-83
2024/04/19 03:16:08;;;;;;;3.80;3.50;;;;;;;2.50;100.00;99283.75;6632706;21;20224;-87
2024/04/19 03:18:40;;;;;;;3.50;3.20;;;;;;;2.54;100.00;99284.22;6590590;21;20341;-86
2024/04/19 03:21:08;;;;;;;3.83;3.43;;;;;;;2.54;100.00;99281.59;6588976;21;20274;-86
2024/04/19 03:23:36;;;;;;;3.70;3.40;;;;;;;2.48;100.00;99283.09;6588579;21;20232;-86
2024/04/19 03:26:07;;;;;;;6.17;3.70;;;;;;;2.48;100.00;99284.91;6589242;21;20232;-87
2024/04/19 03:28:37;;;;;;;4.37;3.97;;;;;;;2.45;100.00;99287.94;6589822;21;20240;-87
2024/04/19 03:31:08;;;;;;;4.40;4.10;;;;;;;2.46;100.00;99282.47;6589197;21;20285;-90
2024/04/19 03:33:37;;;;;;;3.93;3.63;;;;;;;2.40;100.00;99282.34;6589020;21;20317;-83
2024/04/19 03:36:06;;;;;;;4.20;3.80;;;;;;;2.37;100.00;99285.34;6589700;21;20750;-82
2024/04/19 03:38:34;;;;;;;4.43;4.03;;;;;;;2.30;100.00;99279.09;6589040;21;20227;-86
2024/04/19 03:41:02;;;;;;;4.50;4.10;;;;;;;2.32;100.00;99282.41;6545289;21;20741;-84
2024/04/19 03:43:40;;;;;;;4.53;4.07;;;;;;;2.30;100.00;99282.56;6632397;21;20693;-87
2024/04/19 03:46:08;;;;;;;4.30;3.90;;;;;;;2.26;100.00;99283.09;6632444;21;20751;-87
2024/04/19 03:48:37;;;;;;;4.80;4.40;;;;;;;2.24;100.00;99277.97;6632530;21;20228;-86
2024/04/19 03:51:05;;;;;;;4.80;4.40;;;;;;;2.21;100.00;99273.88;6589071;21;20288;-89
2024/04/19 03:53:33;;;;;;;4.67;4.27;;;;;;;2.14;100.00;99274.75;6545894;21;20557;-88
2024/04/19 03:56:00;;;;;;;5.10;4.70;;;;;;;2.18;100.00;99271.59;6589268;21;20254;-85
2024/04/19 03:58:28;;;;;;;5.37;4.87;;;;;;;2.17;100.00;99274.41;6632271;21;20231;-85
2024/04/19 04:00:56;;;;;;;5.60;5.10;;;;;;;2.17;100.00;99275.22;6589566;21;20271;-87
2024/04/19 04:03:24;;;;;;;5.50;5.10;;;;;;;2.11;100.00;99269.78;6588829;21;20263;-86
2024/04/19 04:05:52;;;;;;;5.17;4.70;;;;;;;2.12;100.00;99285.50;6634005;21;20220;-85
2024/04/19 04:08:20;;;;;;;5.30;4.90;;;;;;;2.11;100.00;99275.91;6588431;21;20235;-85
2024/04/19 04:10:51;;;;;;;5.00;4.60;;;;;;;2.13;100.00;99281.84;6588975;21;20236;-85
2024/04/19 04:13:19;;;;;;;4.90;4.50;;;;;;;2.07;100.00;99271.97;6632110;21;20235;-87
2024/04/19 04:15:46;;;;;;;4.83;4.43;;;;;;;2.09;100.00;99280.56;6588127;21;20232;-86
2024/04/19 04:18:14;;;;;;;5.20;4.70;;;;;;;2.04;100.00;99274.16;6588489;21;20224;-85
2024/04/19 04:20:42;;;;;;;5.20;4.80;;;;;;;2.04;100.00;99279.44;6588002;21;20244;-85
2024/04/19 04:23:10;;;;;;;4.63;4.27;;;;;;;1.98;100.00;99274.84;6587916;21;20220;-86
2024/04/19 04:25:41;;;;;;;5.07;4.67;;;;;;;1.99;100.00;99276.50;6588962;21;20322;-87
2024/04/19 04:28:09;;;;;;;5.20;4.17;;;;;;;1.92;100.00;99276.34;6587944;21;20235;-87
2024/04/19 04:30:38;;;;;;;4.70;4.30;;;;;;;1.96;100.00;99276.84;6631163;21;20231;-85
2024/04/19 04:33:11;;;;;;;5.67;5.17;;;;;;;1.99;100.00;99269.38;6631306;21;20227;-86
2024/04/19 04:35:39;;;;;;;5.83;5.33;;;;;;;2.02;100.00;99268.19;6587291;21;20258;-88
2024/04/19 04:38:07;;;;;;;5.90;5.40;;;;;;;2.05;100.00;99270.50;6587296;21;20263;-85
2024/04/19 04:40:35;;;;;;;6.70;6.10;;;;;;;2.09;100.00;99267.34;6630425;21;20309;-88
2024/04/19 04:43:03;;;;;;;8.37;7.57;;;;;;;2.18;100.00;99274.22;6630311;21;20676;-87
2024/04/19 04:45:34;;;;;;;8.77;8.00;;;;;;;2.32;100.00;99270.00;6630718;21;20755;-87
2024/04/19 04:48:01;;;;;;;11.27;10.07;;;;;;;2.44;100.00;99268.59;6630037;21;20286;-86
2024/04/19 04:50:29;;;;;;;33.87;30.50;;;;;;;2.55;100.00;99272.66;6586119;21;20721;-86
2024/04/19 04:53:01;;;;;;;13.60;12.30;;;;;;;2.69;100.00;99273.69;6629786;21;20227;-86
2024/04/19 04:55:30;;;;;;;9.80;8.90;;;;;;;2.88;100.00;99270.56;6629977;21;20224;-87
2024/04/19 04:58:01;;;;;;;7.60;6.90;;;;;;;3.06;100.00;99273.69;6587599;21;20232;-88
2024/04/19 05:00:33;;;;;;;7.63;6.93;;;;;;;3.24;100.00;99268.88;6588847;21;20228;-88
2024/04/19 05:03:04;;;;;;;7.30;6.57;;;;;;;3.44;100.00;99271.81;6590382;21;20224;-88
2024/04/19 05:05:32;;;;;;;7.60;6.90;;;;;;;3.63;100.00;99270.44;6632704;21;20273;-88
2024/04/19 05:08:00;;;;;;;10.33;7.40;;;;;;;3.85;100.00;99267.69;6588773;21;20258;-86
2024/04/19 05:10:29;;;;;;;7.40;6.70;;;;;;;4.04;100.00;99266.28;6632487;21;20252;-85
2024/04/19 05:12:57;;;;;;;7.30;6.70;;;;;;;4.24;100.00;99271.81;6546236;21;20246;-86
2024/04/19 05:15:26;;;;;;;8.07;7.27;;;;;;;4.43;100.00;99266.69;6589901;21;20236;-86
2024/04/19 05:17:54;;;;;;;7.03;6.43;;;;;;;4.60;100.00;99269.91;6589046;21;20228;-87
2024/04/19 05:20:22;;;;;;;7.07;6.47;;;;;;;4.79;100.00;99271.94;6632195;21;20677;-87
2024/04/19 05:22:50;;;;;;;7.97;7.27;;;;;;;4.94;100.00;99269.22;6588646;21;20278;-83
2024/04/19 05:25:19;;;;;;;7.37;6.40;;;;;;;5.14;100.00;99264.84;6632778;21;20236;-86
2024/04/19 05:27:48;;;;;;;6.57;6.07;;;;;;;5.26;100.00;99260.66;6677121;21;20227;-84
2024/04/19 05:30:19;;;;;;;8.33;6.83;;;;;;;5.48;100.00;99269.38;6631679;21;20232;-84
2024/04/19 05:32:48;;;;;;;7.77;6.97;;;;;;;5.64;100.00;99262.94;6587946;21;20287;-86
2024/04/19 05:35:15;;;;;;;7.63;6.93;;;;;;;5.83;100.00;99256.06;6588738;21;20240;-84
2024/04/19 05:37:59;;;;;;;7.87;7.07;;;;;;;5.97;100.00;99261.25;6587947;21;20732;-83
2024/04/19 05:40:27;;;;;;;7.30;6.60;;;;;;;6.17;100.00;99259.47;6589205;21;20266;-86
2024/04/19 05:42:54;;;;;;;7.13;6.50;;;;;;;6.33;100.00;99258.31;6633059;21;20228;-86
2024/04/19 05:45:23;;;;;;;7.20;6.60;;;;;;;6.46;100.00;99252.19;6588154;21;20224;-84
2024/04/19 05:47:50;;;;;;;7.40;6.70;;;;;;;6.64;100.00;99252.41;6588218;21;20329;-86
2024/04/19 05:50:22;;;;;;;7.20;6.60;;;;;;;6.83;100.00;99256.09;6589037;21;20236;-84
2024/04/19 05:52:51;;;;;;;7.03;6.43;;;;;;;6.92;100.00;99250.38;6587940;21;20220;-83
2024/04/19 05:55:18;;;;;;;7.23;6.53;;;;;;;7.12;100.00;99250.38;6587342;21;20272;-83
2024/04/19 05:57:46;;;;;;;6.93;6.23;;;;;;;7.27;100.00;99250.97;6544043;21;20232;-83
2024/04/19 06:00:14;;;;;;;8.10;7.00;;;;;;;7.37;100.00;99247.88;6587078;21;20267;-83
2024/04/19 06:02:42;;;;;;;7.57;6.83;;;;;;;7.42;100.00;99240.06;6630905;21;20684;-84
2024/04/19 06:05:15;;;;;;;7.23;6.63;;;;;;;7.57;100.00;99240.63;6630793;21;20279;-83
2024/04/19 06:07:46;;;;;;;7.77;6.97;;;;;;;7.59;100.00;99240.44;6546253;21;20274;-82
2024/04/19 06:10:23;;;;;;;7.50;6.83;;;;;;;7.77;100.00;99236.06;6590717;21;20324;-83
2024/04/19 06:12:51;;;;;;;6.70;6.10;;;;;;;7.77;100.00;99238.75;6586744;21;20270;-84
2024/04/19 06:15:18;;;;;;;6.80;6.13;;;;;;;7.97;100.00;99230.66;6544036;21;20240;-82
2024/04/19 06:17:48;;;;;;;7.17;6.57;;;;;;;8.12;100.00;99238.41;6586489;21;20220;-84
2024/04/19 06:20:16;;;;;;;8.73;7.47;;;;;;;8.12;100.00;99239.19;6630041;21;20247;-82
2024/04/19 06:22:47;;;;;;;6.90;6.30;;;;;;;8.29;100.00;99226.19;6586788;21;20251;-86
2024/04/19 06:25:16;;;;;;;6.87;6.27;;;;;;;8.37;100.00;99226.78;6544349;21;20227;-82
2024/04/19 06:27:44;;;;;;;6.40;5.90;;;;;;;8.47;100.00;99228.97;6542319;21;20234;-83
2024/04/19 06:30:12;;;;;;;6.40;5.80;;;;;;;8.50;100.00;99217.03;6586077;21;20670;-83
2024/04/19 06:32:40;;;;;;;5.77;5.27;;;;;;;8.65;100.00;99220.22;6586448;21;20741;-81
2024/04/19 06:35:09;;;;;;;6.70;6.00;;;;;;;8.75;100.00;99213.34;6586151;21;20227;-83
2024/04/19 06:37:38;;;;;;;6.97;6.20;;;;;;;8.88;100.00;99224.97;6586435;21;20286;-84
2024/04/19 06:40:07;;;;;;;5.73;5.20;;;;;;;8.86;100.00;99227.03;6586236;21;20292;-81
2024/04/19 06:42:35;;;;;;;5.80;5.30;;;;;;;8.97;100.00;99220.97;6587113;21;20232;-83
2024/04/19 06:45:04;;;;;;;5.03;4.63;;;;;;;9.10;100.00;99218.19;6586949;21;20236;-83
2024/04/19 06:47:42;;;;;;;5.13;4.60;;;;;;;9.09;100.00;99221.91;6587845;21;20277;-82
2024/04/19 06:50:10;;;;;;;4.70;4.30;;;;;;;9.17;100.00;99218.94;6629428;21;20231;-83
2024/04/19 06:52:38;;;;;;;4.83;4.43;;;;;;;9.29;100.00;99220.66;6543146;21;20255;-81
2024/04/19 06:55:10;;;;;;;5.10;4.70;;;;;;;9.41;100.00;99214.59;6585511;21;20832;-81
2024/04/19 06:57:39;;;;;;;5.10;4.60;;;;;;;9.58;100.00;99210.28;6542386;21;20246;-81
2024/04/19 07:00:10;;;;;;;5.10;4.60;;;;;;;9.69;100.00;99217.56;6585486;21;20274;-83
2024/04/19 07:02:58;;;;;;;4.77;4.17;;;;;;;9.64;100.00;99212.91;6594376;21;20258;-81
2024/04/19 07:05:30;;;;;;;4.57;4.17;;;;;;;9.71;100.00;99196.75;6629769;21;20232;-80
2024/04/19 07:07:58;;;;;;;4.70;4.30;;;;;;;9.70;100.00;99211.19;6586983;21;20267;-83
2024/04/19 07:10:27;;;;;;;4.23;3.83;;;;;;;9.84;100.00;99193.13;6586468;21;20832;-82
2024/04/19 07:12:55;;;;;;;3.87;3.47;;;;;;;9.89;100.00;99195.94;6586665;21;20732;-81
2024/04/19 07:15:23;;;;;;;4.30;3.90;;;;;;;9.85;100.00;99194.72;6629215;21;20271;-82
2024/04/19 07:17:52;;;;;;;3.77;3.47;;;;;;;9.94;100.00;99183.50;6586722;21;20279;-81
2024/04/19 07:20:21;;;;;;;3.80;3.37;;;;;;;10.10;100.00;99190.06;6628942;21;20274;-81
2024/04/19 07:22:52;;;;;;;4.23;3.90;;;;;;;9.99;100.00;99183.63;6585551;21;20228;-82
2024/04/19 07:25:21;;;;;;;3.87;3.57;;;;;;;10.14;100.00;99178.69;6586793;21;20283;-80
2024/04/19 07:27:49;;;;;;;3.90;3.60;;;;;;;10.13;100.00;99176.22;6542348;21;20232;-82
2024/04/19 07:30:16;;;;;;;3.57;3.27;;;;;;;10.07;100.00;99169.13;6628650;21;20224;-81
2024/04/19 07:32:49;;;;;;;4.10;3.70;;;;;;;10.12;100.00;99161.22;6583560;21;20231;-82
2024/04/19 07:35:18;;;;;;;3.83;3.47;;;;;;;10.27;100.00;99167.00;6586223;21;20272;-83
2024/04/19 07:37:46;;;;;;;3.77;3.30;;;;;;;10.35;100.00;99163.19;6584932;21;20267;-80
2024/04/19 07:40:14;;;;;;;3.50;3.20;;;;;;;10.39;100.00;99159.81;6584290;21;20694;-80
2024/04/19 07:42:42;;;;;;;3.37;2.97;;;;;;;10.55;100.00;99156.47;6584343;21;20231;-80
2024/04/19 07:45:18;;;;;;;3.20;3.00;;;;;;;10.72;100.00;99158.47;6584993;21;20808;-80
2024/04/19 07:47:51;;;;;;;2.93;2.73;;;;;;;10.85;100.00;99163.59;6628432;21;20320;-80
2024/04/19 07:50:19;;;;;;;3.00;2.80;;;;;;;10.89;100.00;99152.19;6583283;21;20232;-79
2024/04/19 07:52:48;;;;;;;2.87;2.57;;;;;;;11.12;100.00;99148.69;6582882;21;20266;-79
2024/04/19 07:55:20;;;;;;;2.80;2.60;;;;;;;10.89;100.00;99141.47;6583984;21;20728;-81
2024/04/19 07:57:48;;;;;;;2.60;2.40;;;;;;;10.96;100.00;99138.69;6625997;21;20355;-81
2024/04/19 08:00:17;;;;;;;2.73;2.53;;;;;;;10.89;100.00;99141.47;6629658;21;20227;-81
2024/04/19 08:02:46;;;;;;;3.93;2.50;;;;;;;10.85;100.00;99134.13;6585385;21;20232;-79
2024/04/19 08:05:17;;;;;;;2.50;2.30;;;;;;;10.85;100.00;99136.81;6625876;21;20317;-80
2024/04/19 08:07:44;;;;;;;2.33;2.13;;;;;;;10.74;100.00;99140.28;6584272;21;20541;-81
2024/04/19 08:10:16;;;;;;;2.20;2.00;;;;;;;10.80;100.00;99134.81;6584581;21;20232;-80
2024/04/19 08:12:44;;;;;;;2.67;2.47;;;;;;;10.82;100.00;99126.56;6542493;21;20223;-81
2024/04/19 08:15:12;;;;;;;2.20;2.10;;;;;;;10.89;100.00;99124.56;6584095;21;20231;-81
2024/04/19 08:17:41;;;;;;;2.40;2.20;;;;;;;11.15;100.00;99129.44;6584308;21;20732;-83
2024/04/19 08:20:09;;;;;;;2.30;2.10;;;;;;;11.15;100.00;99125.97;6581416;21;20299;-79
2024/04/19 08:22:37;;;;;;;2.27;2.07;;;;;;;11.37;100.00;99118.91;6625602;21;20228;-79
2024/04/19 08:25:05;;;;;;;2.63;2.03;;;;;;;11.59;100.00;99113.72;6539100;21;20224;-82
2024/04/19 08:27:34;;;;;;;1.90;1.80;;;;;;;11.69;100.00;99106.69;6582176;21;20228;-79
2024/04/19 08:30:03;;;;;;;1.90;1.80;;;;;;;11.82;100.00;99106.44;6627577;21;20705;-79
2024/04/19 08:32:31;;;;;;;2.23;1.70;;;;;;;11.97;100.00;99110.44;6629169;21;20278;-81
2024/04/19 08:34:59;;;;;;;2.03;1.60;;;;;;;12.34;100.00;99104.41;6628865;21;20275;-80
2024/04/19 08:37:31;;;;;;;1.90;1.70;;;;;;;12.51;100.00;99108.94;6583557;21;20236;-79
2024/04/19 08:39:59;;;;;;;2.07;1.87;;;;;;;12.65;100.00;99107.56;6541570;21;20240;-81
2024/04/19 08:42:27;;;;;;;1.70;1.60;;;;;;;12.97;100.00;99108.56;6583811;21;20900;-81
2024/04/19 08:44:55;;;;;;;1.50;1.40;;;;;;;13.21;100.00;99101.94;6627178;21;20287;-81
2024/04/19 08:47:23;;;;;;;1.80;1.60;;;;;;;13.43;96.93;99107.34;6626843;21;20220;-82
2024/04/19 08:49:50;;;;;;;1.60;1.50;;;;;;;13.79;96.71;99103.19;6581884;21;20270;-81
2024/04/19 08:52:23;;;;;;;1.83;1.60;;;;;;;14.25;94.75;99098.25;6626419;21;20236;-80
2024/04/19 08:55:10;;;;;;;1.80;1.60;;;;;;;14.37;91.54;99101.63;6626822;21;20226;-80
2024/04/19 08:57:44;;;;;;;1.50;1.40;;;;;;;14.70;91.55;99114.81;6582886;21;20351;-79
2024/04/19 09:00:13;;;;;;;1.57;1.47;;;;;;;14.75;88.49;99103.25;6584039;21;20233;-79
2024/04/19 09:02:47;;;;;;;1.67;1.40;;;;;;;14.68;86.10;99092.69;6584044;21;20721;-82
2024/04/19 09:05:14;;;;;;;0.93;0.90;;;;;;;14.83;85.10;99111.69;6627987;21;20220;-79
2024/04/19 09:07:42;;;;;;;1.90;1.20;;;;;;;14.53;84.48;99103.38;6626816;21;20227;-81
2024/04/19 09:10:13;;;;;;;1.30;1.20;;;;;;;14.27;82.95;99096.94;6628543;21;20225;-81
2024/04/19 09:12:42;;;;;;;1.50;1.30;;;;;;;14.04;81.72;99095.34;6628802;21;20265;-79
2024/04/19 09:15:11;;;;;;;1.40;1.30;;;;;;;13.74;83.66;99092.38;6582412;21;20308;-80
2024/04/19 09:17:39;;;;;;;1.43;1.23;;;;;;;13.77;86.63;99086.47;6624759;21;20340;-79
2024/04/19 09:20:07;;;;;;;1.60;1.50;;;;;;;13.75;84.22;99085.09;6623955;21;20234;-82
2024/04/19 09:22:38;;;;;;;1.20;1.20;;;;;;;13.92;86.99;99077.72;6626395;21;20726;-79
2024/04/19 09:25:06;;;;;;;1.30;1.20;;;;;;;13.89;87.34;99087.16;6627207;21;20265;-85
2024/04/19 09:27:34;;;;;;;1.97;1.50;;;;;;;13.79;87.28;99087.03;6583290;21;20230;-81
2024/04/19 09:30:03;;;;;;;1.60;1.50;;;;;;;13.91;86.98;99095.75;6628949;21;20564;-80
2024/04/19 09:32:33;;;;;;;1.37;1.27;;;;;;;14.17;85.36;99083.38;6628630;21;20347;-80
2024/04/19 09:35:03;;;;;;;1.90;1.23;;;;;;;14.45;84.28;99082.28;6629449;21;20538;-79
2024/04/19 09:37:31;;;;;;;1.30;1.20;;;;;;;14.65;84.42;99082.41;6629200;21;20231;-81
2024/04/19 09:39:59;;;;;;;1.67;1.57;;;;;;;14.85;82.11;99073.66;6626894;21;20261;-79
2024/04/19 09:42:27;;;;;;;3.80;1.53;;;;;;;14.79;80.74;99083.59;6627573;21;20239;-81
2024/04/19 09:44:56;;;;;;;1.50;1.40;;;;;;;14.62;82.46;99085.63;6578534;21;20234;-81
2024/04/19 09:47:25;;;;;;;1.83;1.40;;;;;;;14.69;82.91;99071.94;6578977;21;20281;-80
2024/04/19 09:49:57;;;;;;;1.77;1.30;;;;;;;14.50;81.09;99075.06;6625121;21;20238;-79
2024/04/19 09:52:27;;;;;;;1.37;1.27;;;;;;;14.63;82.01;99075.69;6581635;21;20332;-80
2024/04/19 09:55:13;;;;;;;2.10;1.43;;;;;;;14.86;80.39;99065.31;6625088;21;20883;-79
2024/04/19 09:57:46;;;;;;;1.80;1.70;;;;;;;15.24;80.43;99069.56;6622585;21;20225;-81
2024/04/19 10:00:17;;;;;;;2.43;1.90;;;;;;;15.29;77.42;99071.47;6624988;21;20253;-82
2024/04/19 10:02:46;;;;;;;2.13;1.93;;;;;;;15.33;76.52;99057.19;6582952;21;20234;-80
2024/04/19 10:05:14;;;;;;;2.33;2.10;;;;;;;14.95;75.33;99052.13;6626761;21;20230;-79
2024/04/19 10:07:42;;;;;;;2.00;1.90;;;;;;;15.29;75.38;99049.88;6628219;21;20224;-79
2024/04/19 10:10:10;;;;;;;1.60;1.50;;;;;;;15.33;75.17;99043.69;6628355;21;20743;-80
2024/04/19 10:12:42;;;;;;;1.87;1.70;;;;;;;15.87;75.34;99043.31;6630985;21;20347;-79
2024/04/19 10:15:12;;;;;;;1.90;1.80;;;;;;;15.18;72.59;99040.09;6630676;21;20258;-79
2024/04/19 10:17:43;;;;;;;2.73;1.80;;;;;;;15.18;72.38;99034.72;6630221;21;20269;-82
2024/04/19 10:20:13;;;;;;;1.70;1.60;;;;;;;15.39;72.00;99034.53;6580712;21;20574;-82
2024/04/19 10:22:51;;;;;;;2.60;1.90;;;;;;;15.51;69.51;99031.63;6624338;21;20231;-80
2024/04/19 10:25:23;;;;;;;1.60;1.50;;;;;;;15.42;68.88;99020.50;6625258;21;20335;-82
2024/04/19 10:27:51;;;;;;;1.70;1.60;;;;;;;15.38;67.24;99024.00;6580570;21;20232;-81
2024/04/19 10:30:19;;;;;;;1.63;1.53;;;;;;;15.57;68.77;99008.97;6625245;21;20227;-81
2024/04/19 10:33:01;;;;;;;1.70;1.60;;;;;;;15.97;67.80;99002.81;6586278;21;20238;-82
2024/04/19 10:35:36;;;;;;;2.67;1.60;;;;;;;16.00;68.98;99002.28;6541098;21;20291;-82
2024/04/19 10:38:04;;;;;;;2.10;1.60;;;;;;;15.98;66.82;98998.22;6585186;21;20222;-81
2024/04/19 10:40:31;;;;;;;1.80;1.70;;;;;;;15.97;66.38;99000.09;6583977;21;20325;-81
2024/04/19 10:43:06;;;;;;;1.80;1.70;;;;;;;15.52;64.94;98990.06;6586278;21;20267;-81
2024/04/19 10:45:35;;;;;;;1.70;1.60;;;;;;;15.96;64.31;98990.38;6672478;21;20220;-81
2024/04/19 10:48:06;;;;;;;1.77;1.67;;;;;;;16.04;64.92;98986.31;6584879;21;20270;-82
2024/04/19 10:50:35;;;;;;;3.43;1.60;;;;;;;15.60;65.27;98981.41;6585566;21;20224;-81
2024/04/19 10:53:04;;;;;;;2.33;1.70;;;;;;;16.40;64.17;98987.91;6628464;21;20275;-82
2024/04/19 10:55:34;;;;;;;2.20;1.60;;;;;;;15.52;65.89;98983.84;6628056;21;20266;-82
2024/04/19 10:58:02;;;;;;;2.03;1.93;;;;;;;16.25;66.27;98979.81;6541257;21;20276;-83
2024/04/19 11:00:36;;;;;;;2.07;1.73;;;;;;;16.89;65.93;98974.56;6628308;21;20449;-81
2024/04/19 11:03:08;;;;;;;1.73;1.63;;;;;;;15.78;64.96;98969.28;6585841;21;20344;-81
2024/04/19 11:05:46;;;;;;;1.97;1.70;;;;;;;15.73;64.51;98972.78;6628405;21;20223;-82
2024/04/19 11:08:14;;;;;;;1.80;1.70;;;;;;;16.18;64.40;98963.09;6541418;21;20256;-81
2024/04/19 11:10:43;;;;;;;1.60;1.50;;;;;;;16.54;63.74;98961.13;6584166;21;20220;-82
2024/04/19 11:13:14;;;;;;;2.10;1.80;;;;;;;16.52;63.44;98958.69;6540627;21;20251;-81
2024/04/19 11:15:42;;;;;;;2.23;1.80;;;;;;;16.32;62.98;98950.63;6583750;21;20224;-82
2024/04/19 11:18:24;;;;;;;1.40;1.30;;;;;;;16.75;64.28;98949.19;6551570;21;20314;-81
2024/04/19 11:20:52;;;;;;;1.60;1.50;;;;;;;16.86;63.61;98939.94;6540789;21;20256;-82
2024/04/19 11:23:34;;;;;;;2.20;1.57;;;;;;;16.99;63.07;98931.22;6589539;21;20266;-83
2024/04/19 11:26:01;;;;;;;2.30;1.40;;;;;;;17.07;62.17;98922.53;6584308;21;20224;-81
2024/04/19 11:28:29;;;;;;;2.30;1.70;;;;;;;16.78;62.31;98926.19;6627688;21;20743;-82
2024/04/19 11:30:59;;;;;;;1.40;1.30;;;;;;;16.59;63.36;98929.50;6583385;21;20255;-82
2024/04/19 11:33:27;;;;;;;1.60;1.50;;;;;;;16.35;62.77;98916.81;6585022;21;20243;-82
2024/04/19 11:35:55;;;;;;;1.20;1.10;;;;;;;15.78;63.87;98934.19;6583594;21;20227;-82
2024/04/19 11:38:29;;;;;;;1.50;1.20;;;;;;;15.42;65.53;98927.91;6628163;21;20736;-82
2024/04/19 11:40:59;;;;;;;1.00;0.70;;;;;;;14.42;67.39;98931.84;6583699;21;20298;-81
2024/04/19 11:43:30;;;;;;;0.50;0.50;;;;;;;13.40;71.48;98932.13;6584321;21;20311;-81
2024/04/19 11:45:58;;;;;;;0.50;0.50;;;;;;;13.09;74.76;98945.25;6583815;21;20247;-81
2024/04/19 11:48:27;;;;;;;1.27;0.50;;;;;;;12.73;80.96;98956.66;6627493;21;20236;-81